sensor_id;sensor_type;location;lat;lon;timestamp;pressure;altitude;pressure_sealevel;temperature;humidity
73679;BME280;61978;52.742;16.962;2022-12-07T00:01:43;100297.50;;;3.24;100.00
73679;BME280;61978;52.742;16.962;2022-12-07T00:04:16;100291.45;;;3.31;100.00
73679;BME280;61978;52.742;16.962;2022-12-07T00:06:47;100289.94;;;3.29;100.00
73679;BME280;61978;52.742;16.962;2022-12-07T00:09:18;100298.39;;;3.28;100.00
73679;BME280;61978;52.742;16.962;2022-12-07T00:11:48;100300.02;;;3.25;100.00
73679;BME280;61978;52.742;16.962;2022-12-07T00:14:18;100295.06;;;3.26;100.00
73679;BME280;61978;52.742;16.962;2022-12-07T00:16:49;100297.72;;;3.26;100.00
73679;BME280;61978;52.742;16.962;2022-12-07T00:19:21;100295.43;;;3.31;100.00
73679;BME280;61978;52.742;16.962;2022-12-07T00:21:49;100291.08;;;3.26;100.00
73679;BME280;61978;52.742;16.962;2022-12-07T00:24:17;100300.74;;;3.31;100.00
73679;BME280;61978;52.742;16.962;2022-12-07T00:26:44;100294.16;;;3.35;100.00
73679;BME280;61978;52.742;16.962;2022-12-07T00:29:20;100297.11;;;3.32;100.00
73679;BME280;61978;52.742;16.962;2022-12-07T00:31:47;100288.45;;;3.30;100.00
73679;BME280;61978;52.742;16.962;2022-12-07T00:34:18;100288.49;;;3.34;100.00
73679;BME280;61978;52.742;16.962;2022-12-07T00:36:45;100288.49;;;3.34;100.00
73679;BME280;61978;52.742;16.962;2022-12-07T00:39:16;100287.19;;;3.38;100.00
73679;BME280;61978;52.742;16.962;2022-12-07T00:41:49;100288.84;;;3.35;100.00
73679;BME280;61978;52.742;16.962;2022-12-07T00:44:19;100289.84;;;3.38;100.00
73679;BME280;61978;52.742;16.962;2022-12-07T00:46:47;100290.54;;;3.41;100.00
73679;BME280;61978;52.742;16.962;2022-12-07T00:49:21;100289.22;;;3.41;100.00
73679;BME280;61978;52.742;16.962;2022-12-07T00:51:51;100286.56;;;3.41;100.00
73679;BME280;61978;52.742;16.962;2022-12-07T00:54:22;100287.88;;;3.41;100.00
73679;BME280;61978;52.742;16.962;2022-12-07T00:56:51;100280.95;;;3.44;100.00
73679;BME280;61978;52.742;16.962;2022-12-07T00:59:18;100278.61;;;3.45;100.00
73679;BME280;61978;52.742;16.962;2022-12-07T01:01:44;100277.63;;;3.46;100.00
73679;BME280;61978;52.742;16.962;2022-12-07T01:04:10;100267.67;;;3.44;100.00
73679;BME280;61978;52.742;16.962;2022-12-07T01:06:38;100272.19;;;3.47;100.00
73679;BME280;61978;52.742;16.962;2022-12-07T01:09:08;100264.70;;;3.47;100.00
73679;BME280;61978;52.742;16.962;2022-12-07T01:11:36;100265.34;;;3.45;100.00
73679;BME280;61978;52.742;16.962;2022-12-07T01:14:03;100265.24;;;3.50;100.00
73679;BME280;61978;52.742;16.962;2022-12-07T01:16:32;100277.37;;;3.53;100.00
73679;BME280;61978;52.742;16.962;2022-12-07T01:19:04;100277.69;;;3.54;100.00
73679;BME280;61978;52.742;16.962;2022-12-07T01:21:33;100272.28;;;3.59;100.00
73679;BME280;61978;52.742;16.962;2022-12-07T01:24:06;100264.11;;;3.57;100.00
73679;BME280;61978;52.742;16.962;2022-12-07T01:26:34;100266.14;;;3.59;100.00
73679;BME280;61978;52.742;16.962;2022-12-07T01:29:02;100254.01;;;3.56;100.00
73679;BME280;61978;52.742;16.962;2022-12-07T01:31:30;100259.15;;;3.58;100.00
73679;BME280;61978;52.742;16.962;2022-12-07T01:33:59;100261.09;;;3.52;100.00
73679;BME280;61978;52.742;16.962;2022-12-07T01:36:32;100257.28;;;3.50;100.00
73679;BME280;61978;52.742;16.962;2022-12-07T01:39:08;100248.79;;;3.51;100.00
73679;BME280;61978;52.742;16.962;2022-12-07T01:41:41;100258.80;;;3.57;100.00
73679;BME280;61978;52.742;16.962;2022-12-07T01:44:26;100256.27;;;3.51;100.00
73679;BME280;61978;52.742;16.962;2022-12-07T01:47:04;100247.91;;;3.64;100.00
73679;BME280;61978;52.742;16.962;2022-12-07T01:49:37;100254.50;;;3.60;100.00
73679;BME280;61978;52.742;16.962;2022-12-07T01:54:47;100247.94;;;3.46;100.00
73679;BME280;61978;52.742;16.962;2022-12-07T01:57:17;100243.16;;;3.50;100.00
73679;BME280;61978;52.742;16.962;2022-12-07T01:59:45;100233.34;;;3.68;100.00
73679;BME280;61978;52.742;16.962;2022-12-07T02:02:20;100228.19;;;3.96;100.00
73679;BME280;61978;52.742;16.962;2022-12-07T02:04:45;100223.33;;;4.17;100.00
73679;BME280;61978;52.742;16.962;2022-12-07T02:07:15;100221.96;;;4.13;100.00
73679;BME280;61978;52.742;16.962;2022-12-07T02:09:45;100214.94;;;4.04;100.00
73679;BME280;61978;52.742;16.962;2022-12-07T02:12:16;100208.16;;;4.06;100.00
73679;BME280;61978;52.742;16.962;2022-12-07T02:14:46;100204.31;;;4.04;100.00
73679;BME280;61978;52.742;16.962;2022-12-07T02:17:32;100209.30;;;4.07;100.00
73679;BME280;61978;52.742;16.962;2022-12-07T02:22:51;100202.34;;;4.06;100.00
73679;BME280;61978;52.742;16.962;2022-12-07T02:28:29;100186.05;;;4.05;100.00
73679;BME280;61978;52.742;16.962;2022-12-07T02:31:00;100192.58;;;3.55;100.00
73679;BME280;61978;52.742;16.962;2022-12-07T02:33:33;100198.66;;;3.48;100.00
73679;BME280;61978;52.742;16.962;2022-12-07T02:36:11;100200.82;;;3.48;100.00
73679;BME280;61978;52.742;16.962;2022-12-07T02:38:45;100213.95;;;3.50;100.00
73679;BME280;61978;52.742;16.962;2022-12-07T02:41:15;100210.24;;;3.43;100.00
73679;BME280;61978;52.742;16.962;2022-12-07T02:43:45;100214.58;;;3.44;100.00
73679;BME280;61978;52.742;16.962;2022-12-07T02:46:16;100214.27;;;3.47;100.00
73679;BME280;61978;52.742;16.962;2022-12-07T02:48:45;100219.97;;;3.34;100.00
73679;BME280;61978;52.742;16.962;2022-12-07T02:51:21;100218.27;;;3.29;100.00
73679;BME280;61978;52.742;16.962;2022-12-07T02:53:46;100217.79;;;3.29;100.00
73679;BME280;61978;52.742;16.962;2022-12-07T02:59:25;100222.27;;;3.11;100.00
73679;BME280;61978;52.742;16.962;2022-12-07T03:10:44;100215.64;;;2.76;100.00
73679;BME280;61978;52.742;16.962;2022-12-07T03:13:28;100222.86;;;2.70;100.00
73679;BME280;61978;52.742;16.962;2022-12-07T03:16:05;100228.84;;;2.72;100.00
73679;BME280;61978;52.742;16.962;2022-12-07T03:18:40;100230.90;;;2.64;100.00
73679;BME280;61978;52.742;16.962;2022-12-07T03:21:09;100231.12;;;2.67;100.00
73679;BME280;61978;52.742;16.962;2022-12-07T03:23:39;100217.69;;;3.17;100.00
73679;BME280;61978;52.742;16.962;2022-12-07T03:26:13;100219.94;;;3.12;100.00
73679;BME280;61978;52.742;16.962;2022-12-07T03:28:47;100224.41;;;2.94;100.00
73679;BME280;61978;52.742;16.962;2022-12-07T03:31:22;100238.79;;;2.43;100.00
73679;BME280;61978;52.742;16.962;2022-12-07T03:34:01;100232.78;;;2.41;100.00
73679;BME280;61978;52.742;16.962;2022-12-07T03:36:42;100237.98;;;2.33;100.00
73679;BME280;61978;52.742;16.962;2022-12-07T03:39:23;100228.48;;;2.40;100.00
73679;BME280;61978;52.742;16.962;2022-12-07T03:41:57;100227.89;;;2.46;100.00
73679;BME280;61978;52.742;16.962;2022-12-07T03:44:27;100226.89;;;2.47;100.00
73679;BME280;61978;52.742;16.962;2022-12-07T03:47:20;100224.00;;;2.54;100.00
73679;BME280;61978;52.742;16.962;2022-12-07T03:49:50;100223.35;;;2.56;100.00
73679;BME280;61978;52.742;16.962;2022-12-07T03:52:36;100213.09;;;2.57;100.00
73679;BME280;61978;52.742;16.962;2022-12-07T03:57:39;100207.85;;;2.61;100.00
73679;BME280;61978;52.742;16.962;2022-12-07T04:00:12;100207.14;;;2.59;100.00
73679;BME280;61978;52.742;16.962;2022-12-07T04:02:44;100203.47;;;2.56;100.00
73679;BME280;61978;52.742;16.962;2022-12-07T04:05:19;100193.57;;;2.58;100.00
73679;BME280;61978;52.742;16.962;2022-12-07T04:07:47;100196.59;;;2.63;100.00
73679;BME280;61978;52.742;16.962;2022-12-07T04:10:14;100201.03;;;2.58;100.00
73679;BME280;61978;52.742;16.962;2022-12-07T04:12:45;100194.37;;;2.72;100.00
73679;BME280;61978;52.742;16.962;2022-12-07T04:15:16;100194.17;;;2.52;100.00
73679;BME280;61978;52.742;16.962;2022-12-07T04:17:42;100192.44;;;2.78;100.00
73679;BME280;61978;52.742;16.962;2022-12-07T04:20:13;100190.14;;;2.79;100.00
73679;BME280;61978;52.742;16.962;2022-12-07T04:22:42;100195.05;;;2.74;100.00
73679;BME280;61978;52.742;16.962;2022-12-07T04:25:10;100195.75;;;2.76;100.00
73679;BME280;61978;52.742;16.962;2022-12-07T04:27:37;100190.45;;;2.76;100.00
73679;BME280;61978;52.742;16.962;2022-12-07T04:30:08;100197.88;;;2.76;100.00
73679;BME280;61978;52.742;16.962;2022-12-07T04:32:38;100188.47;;;2.78;100.00
73679;BME280;61978;52.742;16.962;2022-12-07T04:35:09;100191.12;;;2.78;100.00
73679;BME280;61978;52.742;16.962;2022-12-07T04:37:36;100192.52;;;2.86;100.00
73679;BME280;61978;52.742;16.962;2022-12-07T04:40:08;100194.93;;;2.79;100.00
73679;BME280;61978;52.742;16.962;2022-12-07T04:42:37;100198.09;;;2.79;100.00
73679;BME280;61978;52.742;16.962;2022-12-07T04:45:09;100183.90;;;2.88;100.00
73679;BME280;61978;52.742;16.962;2022-12-07T04:47:37;100180.02;;;2.96;100.00
73679;BME280;61978;52.742;16.962;2022-12-07T04:50:10;100184.00;;;2.96;100.00
73679;BME280;61978;52.742;16.962;2022-12-07T04:52:41;100173.08;;;2.99;100.00
73679;BME280;61978;52.742;16.962;2022-12-07T04:55:12;100177.08;;;3.03;100.00
73679;BME280;61978;52.742;16.962;2022-12-07T04:57:39;100181.10;;;3.07;100.00
73679;BME280;61978;52.742;16.962;2022-12-07T05:00:11;100178.45;;;3.07;100.00
73679;BME280;61978;52.742;16.962;2022-12-07T05:02:37;100172.57;;;3.17;100.00
73679;BME280;61978;52.742;16.962;2022-12-07T05:05:04;100166.61;;;3.19;100.00
73679;BME280;61978;52.742;16.962;2022-12-07T05:07:33;100170.67;;;3.10;100.00
73679;BME280;61978;52.742;16.962;2022-12-07T05:09:59;100165.41;;;3.14;100.00
73679;BME280;61978;52.742;16.962;2022-12-07T05:12:28;100158.69;;;3.23;100.00
73679;BME280;61978;52.742;16.962;2022-12-07T05:15:00;100162.80;;;3.22;100.00
73679;BME280;61978;52.742;16.962;2022-12-07T05:17:29;100161.65;;;3.20;100.00
73679;BME280;61978;52.742;16.962;2022-12-07T05:19:56;100167.31;;;3.25;100.00
73679;BME280;61978;52.742;16.962;2022-12-07T05:22:22;100161.66;;;3.24;100.00
73679;BME280;61978;52.742;16.962;2022-12-07T05:24:50;100165.02;;;3.26;100.00
73679;BME280;61978;52.742;16.962;2022-12-07T05:27:17;100158.03;;;3.25;100.00
73679;BME280;61978;52.742;16.962;2022-12-07T05:29:43;100154.09;;;3.29;100.00
73679;BME280;61978;52.742;16.962;2022-12-07T05:32:09;100155.91;;;3.29;100.00
73679;BME280;61978;52.742;16.962;2022-12-07T05:34:36;100149.89;;;3.27;100.00
73679;BME280;61978;52.742;16.962;2022-12-07T05:37:03;100147.41;;;3.25;100.00
73679;BME280;61978;52.742;16.962;2022-12-07T05:39:30;100163.42;;;3.16;100.00
73679;BME280;61978;52.742;16.962;2022-12-07T05:41:58;100160.63;;;3.17;100.00
73679;BME280;61978;52.742;16.962;2022-12-07T05:44:42;100151.03;;;3.20;100.00
73679;BME280;61978;52.742;16.962;2022-12-07T05:47:11;100154.66;;;3.19;100.00
73679;BME280;61978;52.742;16.962;2022-12-07T05:49:38;100149.70;;;3.20;100.00
73679;BME280;61978;52.742;16.962;2022-12-07T05:52:06;100152.15;;;3.18;100.00
73679;BME280;61978;52.742;16.962;2022-12-07T05:54:32;100157.36;;;3.23;100.00
73679;BME280;61978;52.742;16.962;2022-12-07T05:56:59;100166.46;;;3.03;100.00
73679;BME280;61978;52.742;16.962;2022-12-07T05:59:25;100146.95;;;3.08;100.00
73679;BME280;61978;52.742;16.962;2022-12-07T06:02:00;100153.48;;;2.96;100.00
73679;BME280;61978;52.742;16.962;2022-12-07T06:04:29;100145.85;;;2.97;100.00
73679;BME280;61978;52.742;16.962;2022-12-07T06:06:57;100139.88;;;2.95;100.00
73679;BME280;61978;52.742;16.962;2022-12-07T06:09:25;100138.24;;;2.98;100.00
73679;BME280;61978;52.742;16.962;2022-12-07T06:11:52;100137.09;;;2.97;100.00
73679;BME280;61978;52.742;16.962;2022-12-07T06:14:38;100133.03;;;3.10;100.00
73679;BME280;61978;52.742;16.962;2022-12-07T06:17:06;100141.48;;;3.10;100.00
73679;BME280;61978;52.742;16.962;2022-12-07T06:19:33;100143.48;;;3.12;100.00
73679;BME280;61978;52.742;16.962;2022-12-07T06:22:01;100134.77;;;3.19;100.00
73679;BME280;61978;52.742;16.962;2022-12-07T06:24:28;100115.52;;;3.17;100.00
73679;BME280;61978;52.742;16.962;2022-12-07T06:26:55;100130.08;;;3.13;100.00
73679;BME280;61978;52.742;16.962;2022-12-07T06:29:21;100132.69;;;3.09;100.00
73679;BME280;61978;52.742;16.962;2022-12-07T06:31:48;100129.77;;;3.16;100.00
73679;BME280;61978;52.742;16.962;2022-12-07T06:34:20;100138.08;;;3.17;100.00
73679;BME280;61978;52.742;16.962;2022-12-07T06:36:49;100125.74;;;3.12;100.00
73679;BME280;61978;52.742;16.962;2022-12-07T06:39:18;100128.44;;;3.16;100.00
73679;BME280;61978;52.742;16.962;2022-12-07T06:41:45;100135.03;;;3.12;100.00
73679;BME280;61978;52.742;16.962;2022-12-07T06:44:12;100128.70;;;3.09;100.00
73679;BME280;61978;52.742;16.962;2022-12-07T06:46:39;100132.20;;;3.10;100.00
73679;BME280;61978;52.742;16.962;2022-12-07T06:49:06;100138.03;;;3.13;100.00
73679;BME280;61978;52.742;16.962;2022-12-07T06:51:33;100130.42;;;3.14;100.00
73679;BME280;61978;52.742;16.962;2022-12-07T06:54:03;100130.74;;;3.15;100.00
73679;BME280;61978;52.742;16.962;2022-12-07T06:56:30;100131.27;;;3.19;100.00
73679;BME280;61978;52.742;16.962;2022-12-07T06:58:56;100128.48;;;3.20;100.00
73679;BME280;61978;52.742;16.962;2022-12-07T07:01:22;100127.78;;;3.18;100.00
73679;BME280;61978;52.742;16.962;2022-12-07T07:03:49;100125.96;;;3.19;100.00
73679;BME280;61978;52.742;16.962;2022-12-07T07:06:15;100120.83;;;3.17;100.00
73679;BME280;61978;52.742;16.962;2022-12-07T07:08:42;100120.00;;;3.21;100.00
73679;BME280;61978;52.742;16.962;2022-12-07T07:11:09;100114.33;;;3.16;100.00
73679;BME280;61978;52.742;16.962;2022-12-07T07:13:36;100113.49;;;3.15;100.00
73679;BME280;61978;52.742;16.962;2022-12-07T07:16:07;100110.88;;;3.19;100.00
73679;BME280;61978;52.742;16.962;2022-12-07T07:18:34;100116.19;;;3.19;100.00
73679;BME280;61978;52.742;16.962;2022-12-07T07:21:03;100111.86;;;3.18;100.00
73679;BME280;61978;52.742;16.962;2022-12-07T07:23:31;100115.84;;;3.18;100.00
73679;BME280;61978;52.742;16.962;2022-12-07T07:25:58;100116.14;;;3.11;100.00
73679;BME280;61978;52.742;16.962;2022-12-07T07:28:25;100100.93;;;3.21;100.00
73679;BME280;61978;52.742;16.962;2022-12-07T07:30:51;100104.59;;;3.20;100.00
73679;BME280;61978;52.742;16.962;2022-12-07T07:33:17;100102.39;;;3.16;100.00
73679;BME280;61978;52.742;16.962;2022-12-07T07:35:45;100094.29;;;3.17;100.00
73679;BME280;61978;52.742;16.962;2022-12-07T07:38:12;100094.29;;;3.17;100.00
73679;BME280;61978;52.742;16.962;2022-12-07T07:40:40;100094.64;;;3.22;100.00
73679;BME280;61978;52.742;16.962;2022-12-07T07:43:06;100101.10;;;3.20;100.00
73679;BME280;61978;52.742;16.962;2022-12-07T07:45:33;100104.06;;;3.17;100.00
73679;BME280;61978;52.742;16.962;2022-12-07T07:48:01;100100.92;;;3.17;100.00
73679;BME280;61978;52.742;16.962;2022-12-07T07:50:27;100100.93;;;3.21;100.00
73679;BME280;61978;52.742;16.962;2022-12-07T07:52:54;100097.70;;;3.10;100.00
73679;BME280;61978;52.742;16.962;2022-12-07T07:55:20;100101.41;;;3.17;100.00
73679;BME280;61978;52.742;16.962;2022-12-07T07:57:48;100090.84;;;3.25;100.00
73679;BME280;61978;52.742;16.962;2022-12-07T08:00:17;100089.25;;;3.10;100.00
73679;BME280;61978;52.742;16.962;2022-12-07T08:02:44;100083.02;;;3.19;100.00
73679;BME280;61978;52.742;16.962;2022-12-07T08:05:13;100083.23;;;3.30;100.00
73679;BME280;61978;52.742;16.962;2022-12-07T08:07:40;100079.81;;;3.42;100.00
73679;BME280;61978;52.742;16.962;2022-12-07T08:10:10;100078.20;;;3.49;100.00
73679;BME280;61978;52.742;16.962;2022-12-07T08:12:39;100083.34;;;3.46;100.00
73679;BME280;61978;52.742;16.962;2022-12-07T08:15:11;100084.31;;;3.41;100.00
73679;BME280;61978;52.742;16.962;2022-12-07T08:17:38;100078.17;;;3.45;100.00
73679;BME280;61978;52.742;16.962;2022-12-07T08:20:07;100079.81;;;3.38;100.00
73679;BME280;61978;52.742;16.962;2022-12-07T08:22:35;100081.59;;;3.29;100.00
73679;BME280;61978;52.742;16.962;2022-12-07T08:25:03;100083.09;;;3.31;100.00
73679;BME280;61978;52.742;16.962;2022-12-07T08:27:31;100078.13;;;3.36;100.00
73679;BME280;61978;52.742;16.962;2022-12-07T08:29:58;100075.03;;;3.41;100.00
73679;BME280;61978;52.742;16.962;2022-12-07T08:32:25;100077.47;;;3.38;100.00
73679;BME280;61978;52.742;16.962;2022-12-07T08:34:52;100075.58;;;3.27;100.00
73679;BME280;61978;52.742;16.962;2022-12-07T08:37:19;100072.44;;;3.27;100.00
73679;BME280;61978;52.742;16.962;2022-12-07T08:39:46;100071.74;;;3.21;100.00
73679;BME280;61978;52.742;16.962;2022-12-07T08:42:15;100071.03;;;3.15;100.00
73679;BME280;61978;52.742;16.962;2022-12-07T08:44:41;100062.17;;;3.28;100.00
73679;BME280;61978;52.742;16.962;2022-12-07T08:47:11;100062.62;;;3.24;100.00
73679;BME280;61978;52.742;16.962;2022-12-07T08:49:40;100062.31;;;3.27;100.00
73679;BME280;61978;52.742;16.962;2022-12-07T08:52:08;100058.23;;;3.32;100.00
73679;BME280;61978;52.742;16.962;2022-12-07T08:54:37;100053.66;;;3.21;100.00
73679;BME280;61978;52.742;16.962;2022-12-07T08:57:06;100054.56;;;3.29;100.00
73679;BME280;61978;52.742;16.962;2022-12-07T08:59:35;100054.24;;;3.32;100.00
73679;BME280;61978;52.742;16.962;2022-12-07T09:02:06;100050.55;;;3.25;100.00
73679;BME280;61978;52.742;16.962;2022-12-07T09:04:33;100046.91;;;3.30;100.00
73679;BME280;61978;52.742;16.962;2022-12-07T09:07:01;100039.12;;;3.33;100.00
73679;BME280;61978;52.742;16.962;2022-12-07T09:09:30;100045.83;;;3.11;100.00
73679;BME280;61978;52.742;16.962;2022-12-07T09:11:56;100042.78;;;3.06;100.00
73679;BME280;61978;52.742;16.962;2022-12-07T09:14:24;100041.73;;;2.95;100.00
73679;BME280;61978;52.742;16.962;2022-12-07T09:16:50;100048.54;;;2.98;100.00
73679;BME280;61978;52.742;16.962;2022-12-07T09:19:19;100048.70;;;2.96;100.00
73679;BME280;61978;52.742;16.962;2022-12-07T09:21:47;100044.73;;;3.00;100.00
73679;BME280;61978;52.742;16.962;2022-12-07T09:24:14;100047.96;;;2.86;100.00
73679;BME280;61978;52.742;16.962;2022-12-07T09:26:40;100034.56;;;2.88;100.00
73679;BME280;61978;52.742;16.962;2022-12-07T09:29:07;100040.01;;;2.86;100.00
73679;BME280;61978;52.742;16.962;2022-12-07T09:31:36;100042.61;;;2.78;100.00
73679;BME280;61978;52.742;16.962;2022-12-07T09:34:04;100036.34;;;2.83;100.00
73679;BME280;61978;52.742;16.962;2022-12-07T09:36:33;100034.70;;;2.82;100.00
73679;BME280;61978;52.742;16.962;2022-12-07T09:39:00;100031.25;;;2.68;100.00
73679;BME280;61978;52.742;16.962;2022-12-07T09:41:29;100028.91;;;2.65;100.00
73679;BME280;61978;52.742;16.962;2022-12-07T09:44:17;100019.49;;;2.66;100.00
73679;BME280;61978;52.742;16.962;2022-12-07T09:46:44;100019.62;;;2.61;100.00
73679;BME280;61978;52.742;16.962;2022-12-07T09:49:16;100017.98;;;2.64;100.00
73679;BME280;61978;52.742;16.962;2022-12-07T09:51:43;100005.12;;;2.73;100.00
73679;BME280;61978;52.742;16.962;2022-12-07T09:54:12;100003.89;;;2.63;100.00
73679;BME280;61978;52.742;16.962;2022-12-07T09:56:41;99994.53;;;2.77;100.00
73679;BME280;61978;52.742;16.962;2022-12-07T09:59:19;99993.55;;;2.78;100.00
73679;BME280;61978;52.742;16.962;2022-12-07T10:01:49;99984.89;;;2.72;100.00
73679;BME280;61978;52.742;16.962;2022-12-07T10:04:26;99987.19;;;2.71;100.00
73679;BME280;61978;52.742;16.962;2022-12-07T10:06:55;99990.33;;;2.70;100.00
73679;BME280;61978;52.742;16.962;2022-12-07T10:09:22;99978.83;;;2.84;100.00
73679;BME280;61978;52.742;16.962;2022-12-07T10:12:10;99960.05;;;3.41;100.00
73679;BME280;61978;52.742;16.962;2022-12-07T10:14:40;99958.76;;;3.53;100.00
73679;BME280;61978;52.742;16.962;2022-12-07T10:20:25;99958.73;;;3.49;100.00
73679;BME280;61978;52.742;16.962;2022-12-07T10:25:35;99958.67;;;3.28;100.00
73679;BME280;61978;52.742;16.962;2022-12-07T10:28:17;99964.03;;;3.03;100.00
73679;BME280;61978;52.742;16.962;2022-12-07T10:30:54;99947.95;;;3.46;100.00
73679;BME280;61978;52.742;16.962;2022-12-07T10:33:34;99951.23;;;2.98;100.00
73679;BME280;61978;52.742;16.962;2022-12-07T10:36:17;99961.11;;;2.88;100.00
73679;BME280;61978;52.742;16.962;2022-12-07T10:38:48;99962.08;;;2.83;100.00
73679;BME280;61978;52.742;16.962;2022-12-07T10:41:15;99946.41;;;2.94;100.00
73679;BME280;61978;52.742;16.962;2022-12-07T10:43:52;99950.08;;;2.97;100.00
73679;BME280;61978;52.742;16.962;2022-12-07T10:49:25;99940.72;;;2.89;100.00
73679;BME280;61978;52.742;16.962;2022-12-07T10:57:13;99930.15;;;2.93;100.00
73679;BME280;61978;52.742;16.962;2022-12-07T11:11:14;99908.86;;;3.14;100.00
73679;BME280;61978;52.742;16.962;2022-12-07T11:19:34;99891.55;;;2.98;100.00
73679;BME280;61978;52.742;16.962;2022-12-07T11:22:17;99898.52;;;3.03;100.00
73679;BME280;61978;52.742;16.962;2022-12-07T11:24:57;99893.04;;;3.01;100.00
73679;BME280;61978;52.742;16.962;2022-12-07T11:30:28;99890.02;;;2.88;100.00
73679;BME280;61978;52.742;16.962;2022-12-07T11:38:07;99883.53;;;2.86;100.00
73679;BME280;61978;52.742;16.962;2022-12-07T11:40:33;99886.98;;;2.83;100.00
73679;BME280;61978;52.742;16.962;2022-12-07T11:45:59;99877.24;;;2.91;100.00
73679;BME280;61978;52.742;16.962;2022-12-07T11:51:01;99863.73;;;3.10;100.00
73679;BME280;61978;52.742;16.962;2022-12-07T11:53:38;99859.43;;;3.13;100.00
73679;BME280;61978;52.742;16.962;2022-12-07T11:56:10;99866.55;;;3.13;100.00
73679;BME280;61978;52.742;16.962;2022-12-07T12:04:18;99859.23;;;3.07;100.00
73679;BME280;61978;52.742;16.962;2022-12-07T12:06:45;99860.78;;;3.17;100.00
73679;BME280;61978;52.742;16.962;2022-12-07T12:17:56;99853.40;;;2.95;100.00
73679;BME280;61978;52.742;16.962;2022-12-07T12:20:36;99854.89;;;2.98;100.00
73679;BME280;61978;52.742;16.962;2022-12-07T12:25:48;99852.44;;;3.04;100.00
73679;BME280;61978;52.742;16.962;2022-12-07T12:28:48;99850.13;;;3.09;100.00
73679;BME280;61978;52.742;16.962;2022-12-07T12:33:37;99845.14;;;3.02;100.00
73679;BME280;61978;52.742;16.962;2022-12-07T12:36:23;99839.83;;;3.06;100.00
73679;BME280;61978;52.742;16.962;2022-12-07T12:39:07;99847.81;;;3.10;100.00
73679;BME280;61978;52.742;16.962;2022-12-07T12:46:55;99844.86;;;3.17;100.00
73679;BME280;61978;52.742;16.962;2022-12-07T12:55:11;99823.63;;;3.21;100.00
73679;BME280;61978;52.742;16.962;2022-12-07T12:57:31;99833.55;;;3.07;100.00
73679;BME280;61978;52.742;16.962;2022-12-07T13:00:00;99821.96;;;3.16;100.00
73679;BME280;61978;52.742;16.962;2022-12-07T13:02:31;99832.58;;;3.16;100.00
73679;BME280;61978;52.742;16.962;2022-12-07T13:10:38;99843.23;;;2.83;100.00
73679;BME280;61978;52.742;16.962;2022-12-07T13:15:51;99850.87;;;2.86;100.00
73679;BME280;61978;52.742;16.962;2022-12-07T13:26:33;99856.34;;;2.84;100.00
73679;BME280;61978;52.742;16.962;2022-12-07T13:29:09;99865.60;;;2.76;100.00
73679;BME280;61978;52.742;16.962;2022-12-07T13:34:33;99866.41;;;2.76;100.00
73679;BME280;61978;52.742;16.962;2022-12-07T13:37:47;99881.45;;;2.64;100.00
73679;BME280;61978;52.742;16.962;2022-12-07T13:39:32;99880.19;;;2.76;100.00
73679;BME280;61978;52.742;16.962;2022-12-07T13:42:07;99887.37;;;2.62;100.00
73679;BME280;61978;52.742;16.962;2022-12-07T13:44:33;99878.16;;;2.74;100.00
73679;BME280;61978;52.742;16.962;2022-12-07T13:47:16;99881.66;;;2.74;100.00
73679;BME280;61978;52.742;16.962;2022-12-07T13:49:52;99883.84;;;2.79;100.00
73679;BME280;61978;52.742;16.962;2022-12-07T13:52:28;99882.11;;;2.66;100.00
73679;BME280;61978;52.742;16.962;2022-12-07T13:54:58;99895.64;;;2.55;100.00
73679;BME280;61978;52.742;16.962;2022-12-07T13:57:30;99894.67;;;2.60;100.00
73679;BME280;61978;52.742;16.962;2022-12-07T14:00:03;99890.66;;;2.56;100.00
73679;BME280;61978;52.742;16.962;2022-12-07T14:02:32;99903.20;;;2.46;100.00
73679;BME280;61978;52.742;16.962;2022-12-07T14:07:55;99908.02;;;2.24;100.00
73679;BME280;61978;52.742;16.962;2022-12-07T14:10:38;99903.17;;;2.20;100.00
73679;BME280;61978;52.742;16.962;2022-12-07T14:15:52;99905.33;;;2.16;100.00
73679;BME280;61978;52.742;16.962;2022-12-07T14:18:42;99905.99;;;2.18;100.00
73679;BME280;61978;52.742;16.962;2022-12-07T14:21:19;99906.92;;;2.31;100.00
73679;BME280;61978;52.742;16.962;2022-12-07T14:24:02;99910.20;;;2.29;100.00
73679;BME280;61978;52.742;16.962;2022-12-07T14:26:20;99918.66;;;2.29;100.00
73679;BME280;61978;52.742;16.962;2022-12-07T14:28:49;99916.33;;;2.26;100.00
73679;BME280;61978;52.742;16.962;2022-12-07T14:31:21;99913.36;;;2.29;100.00
73679;BME280;61978;52.742;16.962;2022-12-07T14:33:48;99926.36;;;2.40;100.00
73679;BME280;61978;52.742;16.962;2022-12-07T14:36:18;99929.00;;;2.40;100.00
73679;BME280;61978;52.742;16.962;2022-12-07T14:38:45;99920.61;;;2.48;100.00
73679;BME280;61978;52.742;16.962;2022-12-07T14:41:15;99924.06;;;2.45;100.00
73679;BME280;61978;52.742;16.962;2022-12-07T14:44:07;99926.40;;;2.48;100.00
73679;BME280;61978;52.742;16.962;2022-12-07T14:46:33;99928.91;;;2.28;100.00
73679;BME280;61978;52.742;16.962;2022-12-07T14:49:01;99921.14;;;2.30;100.00
73679;BME280;61978;52.742;16.962;2022-12-07T14:51:30;99933.20;;;2.24;100.00
73679;BME280;61978;52.742;16.962;2022-12-07T14:54:00;99928.61;;;2.35;100.00
73679;BME280;61978;52.742;16.962;2022-12-07T14:56:28;99932.28;;;2.38;100.00
73679;BME280;61978;52.742;16.962;2022-12-07T14:58:56;99932.32;;;2.42;100.00
73679;BME280;61978;52.742;16.962;2022-12-07T15:01:24;99923.66;;;2.57;100.00
73679;BME280;61978;52.742;16.962;2022-12-07T15:03:53;99925.82;;;2.62;100.00